createdAt,value
2019-01-26T00:01:07.494Z,2.30
2019-01-26T00:06:13.433Z,3.13
2019-01-26T00:11:19.556Z,3.33
2019-01-26T00:16:26.437Z,4.27
2019-01-26T00:21:32.926Z,3.37
2019-01-26T00:26:39.483Z,4.03
2019-01-26T00:31:46.846Z,3.47
2019-01-26T00:36:54.273Z,4.87
2019-01-26T00:42:01.538Z,4.40
2019-01-26T00:47:08.930Z,4.43
2019-01-26T00:52:15.097Z,4.23
2019-01-26T00:57:22.131Z,4.63
2019-01-26T01:02:29.273Z,3.90
2019-01-26T01:07:35.226Z,4.73
2019-01-26T01:12:44.194Z,4.43
2019-01-26T01:17:51.691Z,4.87
2019-01-26T01:22:59.082Z,4.20
2019-01-26T01:28:05.343Z,3.67
2019-01-26T01:33:13.179Z,3.37
2019-01-26T01:38:20.448Z,3.47
2019-01-26T01:43:27.256Z,2.57
2019-01-26T01:48:34.759Z,2.93
2019-01-26T01:53:40.629Z,1.80
2019-01-26T01:58:46.907Z,2.90
2019-01-26T02:03:53.197Z,1.23
2019-01-26T02:09:01.840Z,3.47
2019-01-26T02:14:11.506Z,3.00
2019-01-26T02:19:37.996Z,3.83
2019-01-26T02:24:45.504Z,3.20
2019-01-26T02:29:52.585Z,1.73
2019-01-26T02:34:58.732Z,2.83
2019-01-26T02:40:05.271Z,4.13
2019-01-26T02:45:12.695Z,1.37
2019-01-26T02:50:19.375Z,3.33
2019-01-26T02:55:26.129Z,1.20
2019-01-26T03:00:33.349Z,1.77
2019-01-26T03:05:42.073Z,1.97
2019-01-26T03:10:49.175Z,0.50
2019-01-26T03:15:55.272Z,1.07
2019-01-26T03:21:02.447Z,2.03
2019-01-26T03:26:08.747Z,1.37
2019-01-26T03:31:16.053Z,2.40
2019-01-26T03:36:23.918Z,2.57
2019-01-26T03:41:31.101Z,1.77
2019-01-26T03:46:37.834Z,4.20
2019-01-26T03:51:44.762Z,1.77
2019-01-26T03:56:51.100Z,0.80
2019-01-26T04:01:58.737Z,0.83
2019-01-26T04:07:06.176Z,0.27
2019-01-26T04:12:13.221Z,4.00
2019-01-26T04:17:21.921Z,0.97
2019-01-26T04:22:29.575Z,1.83
2019-01-26T04:27:35.950Z,3.30
2019-01-26T04:32:43.551Z,0.67
2019-01-26T04:37:50.126Z,1.67
2019-01-26T04:42:58.658Z,2.30
2019-01-26T04:48:05.881Z,2.03
2019-01-26T04:53:12.455Z,0.93
2019-01-26T04:58:19.970Z,0.77
2019-01-26T05:03:25.793Z,1.57
2019-01-26T05:08:32.804Z,0.93
2019-01-26T05:13:39.272Z,1.57
2019-01-26T05:18:45.276Z,1.00
2019-01-26T05:23:51.170Z,2.67
2019-01-26T05:28:57.831Z,1.23
2019-01-26T05:34:04.269Z,3.93
2019-01-26T05:39:10.393Z,3.63
2019-01-26T05:44:16.986Z,4.10
2019-01-26T05:49:22.869Z,4.30
2019-01-26T05:54:29.806Z,4.83
2019-01-26T05:59:36.019Z,3.50
2019-01-26T06:04:43.281Z,2.50
2019-01-26T06:09:49.717Z,3.27
2019-01-26T06:14:57.864Z,2.87
2019-01-26T06:20:04.397Z,3.03
2019-01-26T06:25:13.054Z,1.77
2019-01-26T06:30:34.242Z,3.93
2019-01-26T06:35:42.007Z,3.60
2019-01-26T06:40:49.080Z,5.23
2019-01-26T06:45:56.790Z,3.73
2019-01-26T06:51:04.928Z,4.70
2019-01-26T06:56:12.525Z,4.13
2019-01-26T07:01:22.346Z,5.63
2019-01-26T07:06:38.430Z,3.80
2019-01-26T07:11:46.465Z,4.10
2019-01-26T07:16:53.907Z,5.10
2019-01-26T07:22:02.160Z,4.80
2019-01-26T07:27:09.068Z,4.33
2019-01-26T07:32:16.519Z,3.57
2019-01-26T07:37:22.874Z,2.80
2019-01-26T07:42:29.559Z,2.97
2019-01-26T07:47:35.660Z,3.50
2019-01-26T07:52:41.780Z,3.17
2019-01-26T07:57:47.619Z,4.43
2019-01-26T08:02:55.346Z,3.30
2019-01-26T08:08:01.366Z,3.30
2019-01-26T08:13:07.563Z,2.60
2019-01-26T08:18:13.471Z,3.27
2019-01-26T08:23:20.728Z,2.63
2019-01-26T08:28:28.204Z,2.43
2019-01-26T08:33:40.821Z,2.73
2019-01-26T08:38:47.433Z,2.60
2019-01-26T08:43:54.104Z,2.63
2019-01-26T08:49:01.222Z,3.13
2019-01-26T08:54:07.734Z,2.47
2019-01-26T08:59:14.003Z,2.57
2019-01-26T09:04:28.156Z,2.60
2019-01-26T09:09:35.580Z,2.67
2019-01-26T09:14:43.300Z,2.10
2019-01-26T09:19:50.399Z,2.77
2019-01-26T09:24:57.451Z,3.33
2019-01-26T09:30:06.137Z,2.70
2019-01-26T09:35:11.869Z,2.20
2019-01-26T09:40:18.418Z,1.67
2019-01-26T09:45:24.892Z,1.87
2019-01-26T09:50:32.012Z,1.43
2019-01-26T09:55:39.089Z,0.63
2019-01-26T10:00:47.279Z,2.77
2019-01-26T10:05:55.221Z,2.77
2019-01-26T10:11:02.086Z,2.63
2019-01-26T10:16:09.496Z,2.97
2019-01-26T10:21:15.790Z,1.93
2019-01-26T10:26:21.796Z,2.03
2019-01-26T10:31:27.778Z,1.53
2019-01-26T10:36:46.271Z,2.43
2019-01-26T10:42:11.531Z,1.93
2019-01-26T10:47:18.836Z,3.23
2019-01-26T10:52:25.322Z,1.90
2019-01-26T10:57:32.882Z,1.47
2019-01-26T11:02:39.437Z,2.53
2019-01-26T11:07:46.733Z,2.03
2019-01-26T11:12:54.545Z,1.93
2019-01-26T11:18:01.070Z,0.77
2019-01-26T11:23:08.253Z,1.03
2019-01-26T11:28:16.663Z,1.70
2019-01-26T11:33:24.075Z,1.90
2019-01-26T11:38:32.101Z,2.97
2019-01-26T11:43:39.815Z,0.83
2019-01-26T11:48:48.148Z,0.77
2019-01-26T11:53:55.311Z,1.33
2019-01-26T11:59:02.193Z,2.77
2019-01-26T12:04:27.472Z,1.73
2019-01-26T12:09:35.399Z,2.30
2019-01-26T12:14:41.719Z,3.23
2019-01-26T12:19:47.849Z,2.00
2019-01-26T12:24:56.373Z,3.40
2019-01-26T12:30:03.440Z,2.90
2019-01-26T12:35:11.389Z,2.97
2019-01-26T12:40:17.468Z,3.27
2019-01-26T12:45:24.283Z,2.90
2019-01-26T12:50:31.404Z,2.97
2019-01-26T12:55:39.849Z,2.40
2019-01-26T13:00:47.011Z,3.33
2019-01-26T13:05:54.941Z,3.27
2019-01-26T13:11:05.484Z,3.70
2019-01-26T13:16:12.006Z,3.90
2019-01-26T13:21:19.275Z,4.20
2019-01-26T13:26:25.708Z,4.67
2019-01-26T13:31:31.875Z,4.87
2019-01-26T13:36:38.403Z,4.20
2019-01-26T13:41:44.547Z,4.27
2019-01-26T13:46:51.926Z,3.67
2019-01-26T13:51:59.364Z,4.00
2019-01-26T13:57:06.181Z,4.87
2019-01-26T14:02:12.009Z,3.97
2019-01-26T14:07:18.212Z,2.97
2019-01-26T14:12:24.254Z,3.20
2019-01-26T14:17:30.477Z,2.97
2019-01-26T14:22:37.310Z,2.33
2019-01-26T14:27:43.447Z,3.03
2019-01-26T14:32:52.662Z,2.70
2019-01-26T14:37:56.938Z,4.37
2019-01-26T14:43:02.985Z,3.53
2019-01-26T14:48:09.579Z,2.80
2019-01-26T14:53:15.941Z,3.17
2019-01-26T14:58:22.399Z,2.70
2019-01-26T15:03:30.238Z,1.60
2019-01-26T15:08:36.721Z,2.90
2019-01-26T15:13:42.972Z,4.23
2019-01-26T15:18:49.837Z,3.13
2019-01-26T15:23:56.436Z,2.97
2019-01-26T15:29:02.526Z,1.03
2019-01-26T15:34:08.953Z,3.33
2019-01-26T15:39:15.190Z,3.90
2019-01-26T15:44:21.534Z,4.17
2019-01-26T15:49:32.938Z,6.50
2019-01-26T15:54:41.250Z,5.77
2019-01-26T15:59:53.423Z,3.73
2019-01-26T16:04:56.995Z,6.37
2019-01-26T16:10:05.230Z,21.10
2019-01-26T16:15:13.870Z,27.67
2019-01-26T16:20:20.642Z,13.40
2019-01-26T16:25:26.950Z,4.33
2019-01-26T16:30:35.791Z,3.83
2019-01-26T16:35:42.718Z,4.07
2019-01-26T16:40:50.063Z,4.70
2019-01-26T16:45:57.530Z,3.77
2019-01-26T16:51:04.402Z,5.00
2019-01-26T16:56:11.743Z,4.73
2019-01-26T17:01:18.796Z,5.50
2019-01-26T17:06:26.096Z,5.67
2019-01-26T17:11:53.605Z,6.57
2019-01-26T17:17:01.047Z,6.47
2019-01-26T17:22:07.995Z,4.60
2019-01-26T17:27:14.033Z,6.20
2019-01-26T17:32:20.479Z,5.27
2019-01-26T17:37:27.726Z,5.93
2019-01-26T17:42:35.039Z,4.90
2019-01-26T17:47:43.860Z,4.33
2019-01-26T17:52:51.440Z,5.30
2019-01-26T17:57:58.697Z,5.00
2019-01-26T18:03:06.941Z,4.90
2019-01-26T18:08:16.041Z,5.60
2019-01-26T18:13:22.357Z,4.90
2019-01-26T18:18:30.970Z,5.80
2019-01-26T18:23:39.763Z,6.37
2019-01-26T18:28:46.043Z,5.70
2019-01-26T18:33:52.228Z,4.17
2019-01-26T18:39:02.066Z,4.53
2019-01-26T18:44:08.502Z,5.03
2019-01-26T18:49:14.927Z,4.00
2019-01-26T18:54:22.753Z,4.60
2019-01-26T18:59:30.478Z,4.40
2019-01-26T19:04:46.140Z,5.00
2019-01-26T19:09:51.946Z,4.23
2019-01-26T19:14:58.242Z,3.90
2019-01-26T19:20:04.937Z,4.63
2019-01-26T19:25:12.907Z,4.57
2019-01-26T19:30:20.560Z,3.87
2019-01-26T19:35:27.675Z,3.57
2019-01-26T19:40:34.722Z,4.70
2019-01-26T19:45:42.284Z,5.13
2019-01-26T19:50:49.397Z,5.20
2019-01-26T19:55:55.638Z,4.83
2019-01-26T20:01:02.040Z,4.33
2019-01-26T20:06:08.159Z,4.37
2019-01-26T20:11:15.242Z,4.47
2019-01-26T20:16:22.392Z,4.13
2019-01-26T20:21:28.346Z,4.47
2019-01-26T20:26:35.189Z,4.60
2019-01-26T20:31:42.284Z,4.60
2019-01-26T20:36:49.635Z,4.70
2019-01-26T20:41:56.855Z,4.43
2019-01-26T20:47:04.047Z,3.97
2019-01-26T20:52:10.955Z,5.03
2019-01-26T20:57:18.174Z,4.10
2019-01-26T21:02:25.515Z,4.50
2019-01-26T21:07:31.675Z,4.57
2019-01-26T21:12:42.303Z,4.47
2019-01-26T21:17:48.658Z,4.13
2019-01-26T21:22:55.868Z,5.10
2019-01-26T21:28:02.193Z,4.60
2019-01-26T21:33:08.979Z,5.73
2019-01-26T21:38:16.014Z,5.97
2019-01-26T21:43:23.140Z,4.60
2019-01-26T21:48:30.837Z,4.87
2019-01-26T21:53:39.625Z,4.43
2019-01-26T21:58:46.067Z,4.23
2019-01-26T22:03:52.375Z,4.27
2019-01-26T22:08:58.495Z,3.87
2019-01-26T22:14:06.819Z,1.93
2019-01-26T22:19:13.449Z,2.30
2019-01-26T22:24:21.451Z,2.20
2019-01-26T22:29:31.352Z,2.40
2019-01-26T22:34:38.082Z,2.13
2019-01-26T22:39:49.476Z,2.03
2019-01-26T22:44:56.406Z,0.77
2019-01-26T22:50:04.007Z,1.27
2019-01-26T22:55:11.505Z,0.57
2019-01-26T23:01:00.899Z,0.83
2019-01-26T23:12:37.290Z,0.50
2019-01-26T23:18:38.806Z,1.00
2019-01-26T23:24:31.860Z,1.50
2019-01-26T23:30:23.501Z,1.60
2019-01-26T23:35:30.713Z,2.07
2019-01-26T23:40:38.065Z,1.30
2019-01-26T23:45:45.288Z,1.30
2019-01-26T23:50:51.628Z,1.20
2019-01-26T23:55:58.111Z,1.30
